createdAt,value
2022-08-05T00:00:18.336Z,8.00
2022-08-05T00:02:51.556Z,7.93
2022-08-05T00:06:02.133Z,8.40
2022-08-05T00:08:32.778Z,7.55
2022-08-05T00:11:00.668Z,8.32
2022-08-05T00:13:39.237Z,7.78
2022-08-05T00:16:13.865Z,7.13
2022-08-05T00:18:46.059Z,8.95
2022-08-05T00:21:17.118Z,8.77
2022-08-05T00:24:05.083Z,10.40
2022-08-05T00:26:34.361Z,7.07
2022-08-05T00:29:01.662Z,8.00
2022-08-05T00:31:53.399Z,6.97
2022-08-05T00:34:54.217Z,6.60
2022-08-05T00:37:09.673Z,7.78
2022-08-05T00:39:41.484Z,7.00
2022-08-05T00:42:11.189Z,7.43
2022-08-05T00:44:58.425Z,7.78
2022-08-05T00:47:26.821Z,7.00
2022-08-05T00:50:13.782Z,7.10
2022-08-05T00:52:42.277Z,7.85
2022-08-05T00:55:12.807Z,7.50
2022-08-05T00:57:58.399Z,7.32
2022-08-05T01:00:28.749Z,8.30
2022-08-05T01:02:57.458Z,8.25
2022-08-05T01:05:27.373Z,8.07
2022-08-05T01:08:30.768Z,6.90
2022-08-05T01:10:52.167Z,7.35
2022-08-05T01:13:58.316Z,7.07
2022-08-05T01:16:52.517Z,7.25
2022-08-05T01:20:00.995Z,6.85
2022-08-05T01:22:27.926Z,8.00
2022-08-05T01:25:39.641Z,6.38
2022-08-05T01:28:17.087Z,6.95
2022-08-05T01:30:55.476Z,6.63
2022-08-05T01:33:35.640Z,6.93
2022-08-05T01:36:13.152Z,7.15
2022-08-05T01:38:49.623Z,7.80
2022-08-05T01:41:21.657Z,6.85
2022-08-05T01:43:53.810Z,7.72
2022-08-05T01:46:43.092Z,8.13
2022-08-05T01:49:24.383Z,6.97
2022-08-05T01:51:59.725Z,7.35
2022-08-05T01:54:45.788Z,7.20
2022-08-05T01:58:10.381Z,6.95
2022-08-05T02:00:12.036Z,7.60
2022-08-05T02:02:51.139Z,7.60
2022-08-05T02:05:25.264Z,8.02
2022-08-05T02:08:00.233Z,7.80
2022-08-05T02:10:34.900Z,8.10
2022-08-05T02:13:16.284Z,8.23
2022-08-05T02:15:59.769Z,8.57
2022-08-05T02:18:34.802Z,8.63
2022-08-05T02:21:30.412Z,8.00
2022-08-05T02:24:09.237Z,6.90
2022-08-05T02:26:54.562Z,7.00
2022-08-05T02:29:59.772Z,7.95
2022-08-05T02:32:19.745Z,7.93
2022-08-05T02:34:54.733Z,8.02
2022-08-05T02:37:24.069Z,7.75
2022-08-05T02:39:53.716Z,8.20
2022-08-05T02:42:25.864Z,7.15
2022-08-05T02:44:53.919Z,7.43
2022-08-05T02:47:22.643Z,7.82
2022-08-05T02:49:50.739Z,7.85
2022-08-05T02:52:30.077Z,7.10
2022-08-05T02:55:01.730Z,7.55
2022-08-05T02:58:09.384Z,7.68
2022-08-05T03:00:20.681Z,8.15
2022-08-05T03:02:48.777Z,6.97
2022-08-05T03:05:16.163Z,7.10
2022-08-05T03:08:04.603Z,8.32
2022-08-05T03:10:31.691Z,7.43
2022-08-05T03:15:27.660Z,7.95
2022-08-05T03:17:57.787Z,7.85
2022-08-05T03:20:25.505Z,8.70
2022-08-05T03:22:57.209Z,7.38
2022-08-05T03:25:34.094Z,7.38
2022-08-05T03:28:14.472Z,7.80
2022-08-05T03:30:48.009Z,8.98
2022-08-05T03:33:16.406Z,6.80
2022-08-05T03:35:46.480Z,7.78
2022-08-05T03:38:14.387Z,9.07
2022-08-05T03:40:45.343Z,8.00
2022-08-05T03:43:58.814Z,8.32
2022-08-05T03:46:02.698Z,7.50
2022-08-05T03:48:35.452Z,7.70
2022-08-05T03:52:37.707Z,7.22
2022-08-05T03:55:51.844Z,6.47
2022-08-05T03:57:29.108Z,7.15
2022-08-05T04:00:16.006Z,7.68
2022-08-05T04:02:52.213Z,8.90
2022-08-05T04:05:33.430Z,7.25
2022-08-05T04:08:29.772Z,7.63
2022-08-05T04:10:55.624Z,8.68
2022-08-05T04:13:23.434Z,7.82
2022-08-05T04:16:03.105Z,8.77
2022-08-05T04:18:32.367Z,6.97
2022-08-05T04:21:03.860Z,7.43
2022-08-05T04:23:57.329Z,7.20
2022-08-05T04:26:18.901Z,8.32
2022-08-05T04:28:51.097Z,7.95
2022-08-05T04:31:19.985Z,7.53
2022-08-05T04:34:18.029Z,6.93
2022-08-05T04:36:45.902Z,6.68
2022-08-05T04:39:18.776Z,8.20
2022-08-05T04:41:48.019Z,7.50
2022-08-05T04:44:21.053Z,7.35
2022-08-05T04:46:56.253Z,7.18
2022-08-05T04:49:24.735Z,7.72
2022-08-05T04:52:06.021Z,7.00
2022-08-05T04:54:35.052Z,7.50
2022-08-05T04:57:02.074Z,7.60
2022-08-05T04:59:40.592Z,6.78
2022-08-05T05:02:36.497Z,8.35
2022-08-05T05:05:01.878Z,7.80
2022-08-05T05:07:32.754Z,8.65
2022-08-05T05:10:05.469Z,9.07
2022-08-05T05:12:33.485Z,7.93
2022-08-05T05:15:03.847Z,8.38
2022-08-05T05:17:56.632Z,7.53
2022-08-05T05:20:28.760Z,7.72
2022-08-05T05:23:07.995Z,7.80
2022-08-05T05:25:40.801Z,9.05
2022-08-05T05:28:09.463Z,9.15
2022-08-05T05:30:37.418Z,8.20
2022-08-05T05:33:17.049Z,8.05
2022-08-05T05:35:48.653Z,8.23
2022-08-05T05:38:22.768Z,9.45
2022-08-05T05:40:56.112Z,8.20
2022-08-05T05:43:54.626Z,7.80
2022-08-05T05:46:17.665Z,7.03
2022-08-05T05:48:48.352Z,7.85
2022-08-05T05:51:20.466Z,9.00
2022-08-05T05:53:57.126Z,8.65
2022-08-05T05:56:33.138Z,8.15
2022-08-05T05:59:03.403Z,7.70
2022-08-05T06:01:37.566Z,10.85
2022-08-05T06:04:12.223Z,8.65
2022-08-05T06:06:47.578Z,7.85
2022-08-05T06:09:25.773Z,8.20
2022-08-05T06:12:03.917Z,8.32
2022-08-05T06:14:32.083Z,7.57
2022-08-05T06:17:01.912Z,7.93
2022-08-05T06:19:57.080Z,8.05
2022-08-05T06:22:33.694Z,7.93
2022-08-05T06:25:59.785Z,8.73
2022-08-05T06:28:11.848Z,9.02
2022-08-05T06:30:36.320Z,9.00
2022-08-05T06:33:03.458Z,9.00
2022-08-05T06:36:03.408Z,8.70
2022-08-05T06:38:18.270Z,9.75
2022-08-05T06:41:05.238Z,8.13
2022-08-05T06:43:58.967Z,10.50
2022-08-05T06:46:22.778Z,9.63
2022-08-05T06:48:59.187Z,8.45
2022-08-05T06:51:30.014Z,7.80
2022-08-05T06:53:59.510Z,7.35
2022-08-05T06:56:27.981Z,8.20
2022-08-05T06:58:55.955Z,7.85
2022-08-05T07:01:23.611Z,7.38
2022-08-05T07:04:01.459Z,8.00
2022-08-05T07:06:29.702Z,7.38
2022-08-05T07:08:59.113Z,7.90
2022-08-05T07:11:28.742Z,9.85
2022-08-05T07:14:15.579Z,7.32
2022-08-05T07:17:59.722Z,9.02
2022-08-05T07:22:28.812Z,9.82
2022-08-05T07:25:23.091Z,8.32
2022-08-05T07:27:58.693Z,7.90
2022-08-05T07:30:34.640Z,8.18
2022-08-05T07:33:09.270Z,10.00
2022-08-05T07:36:01.694Z,8.50
2022-08-05T07:38:34.682Z,8.32
2022-08-05T07:42:07.277Z,10.18
2022-08-05T07:43:56.347Z,7.63
2022-08-05T07:46:28.502Z,6.97
2022-08-05T07:49:01.472Z,8.70
2022-08-05T07:51:48.978Z,8.35
2022-08-05T07:54:31.207Z,7.55
2022-08-05T07:57:18.051Z,8.18
2022-08-05T07:59:49.385Z,8.18
2022-08-05T08:02:18.045Z,9.85
2022-08-05T08:04:49.629Z,9.65
2022-08-05T08:07:22.784Z,8.77
2022-08-05T08:09:52.116Z,7.22
2022-08-05T08:12:37.172Z,9.52
2022-08-05T08:15:13.941Z,8.85
2022-08-05T08:17:46.080Z,8.77
2022-08-05T08:20:42.650Z,7.45
2022-08-05T08:23:03.932Z,7.50
2022-08-05T08:26:00.653Z,8.10
2022-08-05T08:28:35.562Z,8.90
2022-08-05T08:31:07.707Z,9.75
2022-08-05T08:33:37.485Z,7.97
2022-08-05T08:36:39.036Z,10.20
2022-08-05T08:38:55.985Z,8.30
2022-08-05T08:41:51.764Z,9.23
2022-08-05T08:45:17.053Z,8.07
2022-08-05T08:47:22.351Z,10.73
2022-08-05T08:50:07.798Z,7.50
2022-08-05T08:52:47.402Z,7.53
2022-08-05T08:56:02.007Z,9.40
2022-08-05T08:58:06.946Z,8.48
2022-08-05T09:00:36.268Z,8.30
2022-08-05T09:03:06.885Z,7.60
2022-08-05T09:05:38.550Z,7.47
2022-08-05T09:08:26.551Z,9.02
2022-08-05T09:10:54.995Z,8.15
2022-08-05T09:13:23.543Z,8.82
2022-08-05T09:15:51.903Z,8.43
2022-08-05T09:18:20.177Z,8.48
2022-08-05T09:20:47.345Z,7.93
2022-08-05T09:23:18.784Z,7.32
2022-08-05T09:26:01.668Z,8.30
2022-08-05T09:28:33.431Z,8.50
2022-08-05T09:31:43.863Z,7.35
2022-08-05T09:34:06.166Z,8.35
2022-08-05T09:36:56.185Z,8.23
2022-08-05T09:39:39.275Z,7.75
2022-08-05T09:42:24.444Z,9.10
2022-08-05T09:45:03.159Z,7.72
2022-08-05T09:47:55.227Z,10.02
2022-08-05T09:50:44.791Z,7.70
2022-08-05T09:53:22.994Z,8.10
2022-08-05T09:56:03.736Z,8.10
2022-08-05T09:58:32.226Z,8.25
2022-08-05T10:01:14.844Z,6.78
2022-08-05T10:04:00.664Z,7.20
2022-08-05T10:06:28.454Z,6.43
2022-08-05T10:09:09.372Z,8.23
2022-08-05T10:11:52.572Z,9.57
2022-08-05T10:14:27.016Z,7.72
2022-08-05T10:16:59.121Z,6.47
2022-08-05T10:20:02.897Z,7.80
2022-08-05T10:22:14.478Z,5.93
2022-08-05T10:24:56.992Z,6.55
2022-08-05T10:27:26.348Z,6.63
2022-08-05T10:32:49.066Z,6.60
2022-08-05T10:33:01.202Z,6.90
2022-08-05T10:35:33.686Z,7.07
2022-08-05T10:38:02.241Z,6.00
2022-08-05T10:40:32.425Z,6.47
2022-08-05T10:43:35.799Z,6.55
2022-08-05T10:46:09.302Z,7.45
2022-08-05T10:48:56.954Z,6.45
2022-08-05T10:51:28.526Z,6.55
2022-08-05T10:53:58.259Z,7.95
2022-08-05T10:56:30.074Z,6.68
2022-08-05T10:59:07.357Z,5.75
2022-08-05T11:01:55.302Z,7.57
2022-08-05T11:04:31.784Z,6.13
2022-08-05T11:07:06.665Z,6.60
2022-08-05T11:09:47.261Z,7.20
2022-08-05T11:12:42.241Z,6.15
2022-08-05T11:15:20.709Z,6.55
2022-08-05T11:17:58.651Z,5.93
2022-08-05T11:20:44.639Z,5.25
2022-08-05T11:23:33.189Z,5.93
2022-08-05T11:26:06.185Z,5.57
2022-08-05T11:28:36.131Z,5.53
2022-08-05T11:31:06.403Z,5.45
2022-08-05T11:33:49.123Z,6.25
2022-08-05T11:36:34.376Z,6.43
2022-08-05T11:39:07.918Z,6.13
2022-08-05T11:42:00.786Z,6.78
2022-08-05T11:44:41.270Z,8.18
2022-08-05T11:47:19.940Z,5.20
2022-08-05T11:49:54.914Z,5.22
2022-08-05T11:52:29.940Z,6.15
2022-08-05T11:55:07.624Z,6.85
2022-08-05T11:58:08.697Z,5.68
2022-08-05T12:00:29.231Z,8.15
2022-08-05T12:02:57.803Z,6.10
2022-08-05T12:05:36.524Z,6.32
2022-08-05T12:08:10.859Z,6.82
2022-08-05T12:10:46.084Z,5.60
2022-08-05T12:13:47.356Z,5.68
2022-08-05T12:16:17.739Z,6.00
2022-08-05T12:18:48.978Z,5.97
2022-08-05T12:21:24.915Z,5.80
2022-08-05T12:23:57.524Z,6.65
2022-08-05T12:26:37.315Z,6.47
2022-08-05T12:29:16.322Z,6.00
2022-08-05T12:31:56.429Z,6.15
2022-08-05T12:34:30.042Z,6.28
2022-08-05T12:37:10.786Z,6.15
2022-08-05T12:39:48.489Z,6.43
2022-08-05T12:42:19.995Z,6.00
2022-08-05T12:44:47.759Z,6.30
2022-08-05T12:47:28.686Z,5.07
2022-08-05T12:50:04.277Z,6.07
2022-08-05T12:52:41.820Z,10.55
2022-08-05T12:55:22.139Z,7.93
2022-08-05T12:58:49.407Z,7.05
2022-08-05T13:02:03.966Z,6.75
2022-08-05T13:03:32.321Z,8.98
2022-08-05T13:06:01.406Z,5.55
2022-08-05T13:08:32.404Z,6.18
2022-08-05T13:11:01.157Z,5.95
2022-08-05T13:14:06.053Z,6.03
2022-08-05T13:16:17.122Z,4.65
2022-08-05T13:18:55.282Z,7.13
2022-08-05T13:21:28.555Z,6.43
2022-08-05T13:24:08.699Z,5.75
2022-08-05T13:26:36.481Z,6.47
2022-08-05T13:29:05.236Z,5.90
2022-08-05T13:31:34.103Z,6.22
2022-08-05T13:34:25.870Z,6.20
2022-08-05T13:36:54.070Z,5.55
2022-08-05T13:39:24.554Z,6.72
2022-08-05T13:42:14.819Z,5.28
2022-08-05T13:44:46.289Z,7.72
2022-08-05T13:47:34.843Z,7.03
2022-08-05T13:50:06.539Z,6.32
2022-08-05T13:52:36.813Z,5.68
2022-08-05T13:55:07.339Z,4.80
2022-08-05T13:57:51.413Z,4.75
2022-08-05T14:00:27.462Z,6.03
2022-08-05T14:02:56.682Z,7.13
2022-08-05T14:05:48.343Z,7.65
2022-08-05T14:08:20.464Z,6.32
2022-08-05T14:10:49.356Z,7.05
2022-08-05T14:13:16.554Z,5.47
2022-08-05T14:16:08.954Z,4.80
2022-08-05T14:18:30.999Z,5.63
2022-08-05T14:20:59.397Z,8.73
2022-08-05T14:23:36.471Z,5.70
2022-08-05T14:26:04.933Z,5.82
2022-08-05T14:28:33.616Z,5.60
2022-08-05T14:31:01.779Z,5.45
2022-08-05T14:33:32.682Z,5.53
2022-08-05T14:36:21.610Z,5.68
2022-08-05T14:38:50.258Z,6.50
2022-08-05T14:41:18.645Z,6.85
2022-08-05T14:43:57.673Z,5.25
2022-08-05T14:46:31.048Z,6.40
2022-08-05T14:49:03.677Z,5.82
2022-08-05T14:51:37.684Z,7.03
2022-08-05T14:54:28.208Z,5.72
2022-08-05T14:56:54.859Z,6.80
2022-08-05T14:59:22.285Z,5.28
2022-08-05T15:01:50.502Z,5.18
2022-08-05T15:04:22.376Z,6.32
2022-08-05T15:06:51.449Z,5.45
2022-08-05T15:09:51.737Z,6.30
2022-08-05T15:12:11.409Z,6.50
2022-08-05T15:14:42.158Z,7.43
2022-08-05T15:17:46.021Z,6.20
2022-08-05T15:20:05.250Z,6.35
2022-08-05T15:22:33.233Z,6.10
2022-08-05T15:25:00.690Z,5.30
2022-08-05T15:27:43.042Z,6.40
2022-08-05T15:30:19.404Z,6.78
2022-08-05T15:32:47.220Z,5.95
2022-08-05T15:35:14.737Z,5.40
2022-08-05T15:38:32.667Z,6.35
2022-08-05T15:41:01.465Z,6.47
2022-08-05T15:43:20.473Z,6.20
2022-08-05T15:46:00.674Z,5.20
2022-08-05T15:48:29.972Z,6.55
2022-08-05T15:51:01.571Z,5.70
2022-08-05T15:53:38.234Z,8.10
2022-08-05T15:56:17.548Z,5.78
2022-08-05T15:58:44.985Z,5.30
2022-08-05T16:01:16.044Z,5.93
2022-08-05T16:03:44.935Z,7.10
2022-08-05T16:06:15.796Z,6.32
2022-08-05T16:08:48.101Z,5.72
2022-08-05T16:11:18.637Z,7.50
2022-08-05T16:13:48.531Z,6.70
2022-08-05T16:16:25.326Z,6.50
2022-08-05T16:18:53.066Z,5.60
2022-08-05T16:22:00.661Z,5.85
2022-08-05T16:24:36.089Z,5.50
2022-08-05T16:27:00.543Z,5.90
2022-08-05T16:29:28.828Z,5.85
2022-08-05T16:31:58.804Z,6.10
2022-08-05T16:34:27.090Z,5.95
2022-08-05T16:36:55.159Z,6.32
2022-08-05T16:39:22.882Z,8.15
2022-08-05T16:42:13.944Z,5.35
2022-08-05T16:44:42.935Z,5.97
2022-08-05T16:47:28.772Z,5.13
2022-08-05T16:49:58.551Z,6.00
2022-08-05T16:52:32.705Z,6.78
2022-08-05T16:55:00.979Z,6.63
2022-08-05T16:57:30.167Z,10.13
2022-08-05T17:00:25.943Z,15.73
2022-08-05T17:03:03.961Z,18.30
2022-08-05T17:05:40.427Z,14.90
2022-08-05T17:08:08.206Z,16.98
2022-08-05T17:10:41.185Z,13.73
2022-08-05T17:13:17.226Z,13.77
2022-08-05T17:15:55.465Z,11.65
2022-08-05T17:18:34.833Z,10.55
2022-08-05T17:21:02.198Z,12.75
2022-08-05T17:24:04.476Z,13.32
2022-08-05T17:26:18.739Z,13.23
2022-08-05T17:28:47.568Z,9.95
2022-08-05T17:31:24.135Z,8.50
2022-08-05T17:34:01.869Z,11.02
2022-08-05T17:36:32.834Z,13.38
2022-08-05T17:39:02.803Z,13.50
2022-08-05T17:42:17.788Z,13.43
2022-08-05T17:44:19.319Z,13.90
2022-08-05T17:46:59.429Z,11.93
2022-08-05T17:49:26.447Z,11.77
2022-08-05T17:52:13.535Z,9.68
2022-08-05T17:54:42.579Z,10.35
2022-08-05T17:57:12.018Z,8.35
2022-08-05T17:59:40.098Z,10.13
2022-08-05T18:02:10.915Z,13.13
2022-08-05T18:04:51.465Z,15.73
2022-08-05T18:07:20.757Z,16.42
2022-08-05T18:09:59.092Z,17.15
2022-08-05T18:12:27.973Z,15.85
2022-08-05T18:14:55.547Z,13.27
2022-08-05T18:18:00.440Z,14.90
2022-08-05T18:20:13.855Z,14.93
2022-08-05T18:22:54.323Z,11.75
2022-08-05T18:25:22.212Z,13.65
2022-08-05T18:27:52.859Z,13.77
2022-08-05T18:30:20.180Z,12.25
2022-08-05T18:32:53.577Z,10.98
2022-08-05T18:35:49.718Z,11.48
2022-08-05T18:38:16.300Z,11.35
2022-08-05T18:41:58.149Z,10.90
2022-08-05T18:43:37.939Z,10.90
2022-08-05T18:46:07.044Z,11.98
2022-08-05T18:48:41.396Z,15.10
2022-08-05T18:52:02.884Z,13.02
2022-08-05T18:54:15.628Z,16.80
2022-08-05T18:56:51.311Z,17.88
2022-08-05T18:59:44.470Z,17.75
2022-08-05T19:02:11.451Z,19.67
2022-08-05T19:05:03.013Z,18.98
2022-08-05T19:07:45.638Z,18.50
2022-08-05T19:10:28.542Z,18.52
2022-08-05T19:12:57.029Z,20.60
2022-08-05T19:15:57.982Z,19.15
2022-08-05T19:18:22.304Z,20.95
2022-08-05T19:20:52.507Z,23.65
2022-08-05T19:24:04.350Z,21.10
2022-08-05T19:26:08.481Z,21.95
2022-08-05T19:28:42.015Z,21.17
2022-08-05T19:31:12.862Z,22.00
2022-08-05T19:33:48.585Z,20.50
2022-08-05T19:36:29.422Z,24.42
2022-08-05T19:39:01.510Z,22.67
2022-08-05T19:42:05.755Z,23.15
2022-08-05T19:44:18.840Z,21.30
2022-08-05T19:46:46.213Z,21.88
2022-08-05T19:49:16.849Z,21.13
2022-08-05T19:52:08.885Z,20.00
2022-08-05T19:54:35.064Z,25.02
2022-08-05T19:57:09.113Z,21.00
2022-08-05T19:59:56.394Z,21.67
2022-08-05T20:02:27.212Z,18.20
2022-08-05T20:04:58.939Z,19.80
2022-08-05T20:07:47.504Z,18.52
2022-08-05T20:10:15.600Z,17.00
2022-08-05T20:12:48.196Z,18.95
2022-08-05T20:15:47.931Z,16.02
2022-08-05T20:18:10.061Z,16.35
2022-08-05T20:20:56.091Z,13.80
2022-08-05T20:23:40.480Z,12.25
2022-08-05T20:26:15.189Z,11.57
2022-08-05T20:28:44.276Z,11.13
2022-08-05T20:31:12.073Z,9.57
2022-08-05T20:33:42.206Z,12.13
2022-08-05T20:36:11.140Z,11.93
2022-08-05T20:38:40.695Z,8.85
2022-08-05T20:41:26.742Z,11.65
2022-08-05T20:44:00.401Z,9.20
2022-08-05T20:46:31.808Z,8.80
2022-08-05T20:48:59.004Z,9.27
2022-08-05T20:51:26.575Z,8.20
2022-08-05T20:53:56.262Z,9.27
2022-08-05T20:56:32.946Z,10.55
2022-08-05T20:59:14.294Z,10.52
2022-08-05T21:01:47.315Z,8.75
2022-08-05T21:04:15.701Z,10.40
2022-08-05T21:06:45.832Z,10.00
2022-08-05T21:09:15.026Z,9.88
2022-08-05T21:12:07.499Z,8.32
2022-08-05T21:14:35.300Z,8.70
2022-08-05T21:17:06.334Z,9.00
2022-08-05T21:19:47.042Z,8.57
2022-08-05T21:22:18.550Z,8.48
2022-08-05T21:24:51.845Z,9.13
2022-08-05T21:27:25.422Z,9.23
2022-08-05T21:29:56.348Z,9.50
2022-08-05T21:32:28.561Z,9.48
2022-08-05T21:35:17.820Z,9.98
2022-08-05T21:37:52.962Z,9.13
2022-08-05T21:40:25.021Z,9.48
2022-08-05T21:42:53.677Z,8.50
2022-08-05T21:45:25.138Z,9.45
2022-08-05T21:48:09.411Z,9.10
2022-08-05T21:50:37.467Z,8.35
2022-08-05T21:53:16.227Z,9.15
2022-08-05T21:56:05.209Z,9.23
2022-08-05T21:58:32.500Z,7.82
2022-08-05T22:01:04.495Z,8.48
2022-08-05T22:03:52.815Z,7.57
2022-08-05T22:06:22.578Z,8.02
2022-08-05T22:08:52.203Z,9.02
2022-08-05T22:11:34.500Z,7.50
2022-08-05T22:14:19.871Z,8.15
2022-08-05T22:16:56.008Z,9.90
2022-08-05T22:20:01.660Z,7.85
2022-08-05T22:22:14.548Z,8.80
2022-08-05T22:25:00.942Z,6.85
2022-08-05T22:28:09.385Z,7.25
2022-08-05T22:30:34.964Z,7.50
2022-08-05T22:33:02.786Z,8.95
2022-08-05T22:35:38.699Z,6.90
2022-08-05T22:38:17.003Z,7.40
2022-08-05T22:40:50.004Z,7.13
2022-08-05T22:43:37.260Z,8.68
2022-08-05T22:46:20.935Z,7.72
2022-08-05T22:48:51.188Z,8.20
2022-08-05T22:51:22.958Z,6.97
2022-08-05T22:53:56.938Z,6.95
2022-08-05T22:56:30.495Z,7.05
2022-08-05T22:59:02.949Z,8.50
2022-08-05T23:02:04.178Z,6.47
2022-08-05T23:04:19.153Z,7.50
2022-08-05T23:06:47.750Z,7.78
2022-08-05T23:09:53.501Z,9.73
2022-08-05T23:12:03.452Z,8.63
2022-08-05T23:14:32.057Z,8.25
2022-08-05T23:17:24.141Z,7.55
2022-08-05T23:19:59.943Z,8.68
2022-08-05T23:22:29.552Z,7.53
2022-08-05T23:24:58.315Z,6.90
2022-08-05T23:27:28.763Z,7.20
2022-08-05T23:30:00.924Z,7.28
2022-08-05T23:32:29.013Z,6.72
2022-08-05T23:34:56.632Z,6.15
2022-08-05T23:37:23.755Z,7.53
2022-08-05T23:39:54.939Z,6.93
2022-08-05T23:42:23.510Z,7.88
2022-08-05T23:44:56.199Z,6.90
2022-08-05T23:47:25.095Z,8.73
2022-08-05T23:49:55.617Z,8.38
2022-08-05T23:52:27.295Z,7.35
2022-08-05T23:54:59.979Z,9.48
2022-08-05T23:57:28.022Z,8.45
